createdAt,value
2022-11-20T00:03:39.891Z,6.67
2022-11-20T00:08:32.658Z,6.40
2022-11-20T00:13:26.570Z,6.93
2022-11-20T00:18:19.150Z,6.53
2022-11-20T00:23:11.791Z,6.70
2022-11-20T00:28:04.518Z,6.50
2022-11-20T00:32:59.730Z,6.07
2022-11-20T00:37:52.295Z,6.40
2022-11-20T00:42:44.858Z,6.80
2022-11-20T00:47:37.448Z,6.70
2022-11-20T00:52:31.385Z,6.30
2022-11-20T00:57:23.947Z,6.40
2022-11-20T01:02:17.351Z,6.53
2022-11-20T01:07:10.096Z,5.90
2022-11-20T01:12:04.008Z,6.00
2022-11-20T01:16:56.561Z,6.13
2022-11-20T01:21:50.554Z,6.20
2022-11-20T01:26:44.248Z,6.10
2022-11-20T01:31:38.869Z,6.33
2022-11-20T01:36:32.290Z,6.10
2022-11-20T01:41:42.801Z,5.50
2022-11-20T01:46:36.230Z,6.07
2022-11-20T01:51:32.961Z,5.77
2022-11-20T01:56:25.915Z,6.13
2022-11-20T02:01:18.721Z,5.97
2022-11-20T02:06:14.187Z,5.57
2022-11-20T02:11:08.339Z,5.93
2022-11-20T02:16:00.942Z,5.70
2022-11-20T02:20:55.946Z,5.10
2022-11-20T02:25:50.024Z,6.00
2022-11-20T02:30:42.628Z,5.13
2022-11-20T02:35:42.704Z,5.47
2022-11-20T02:40:35.261Z,5.17
2022-11-20T02:45:29.213Z,5.10
2022-11-20T02:50:22.280Z,4.77
2022-11-20T02:55:14.842Z,4.90
2022-11-20T03:00:08.630Z,5.00
2022-11-20T03:05:02.572Z,5.13
2022-11-20T03:09:55.303Z,5.70
2022-11-20T03:14:52.649Z,5.33
2022-11-20T03:19:45.722Z,5.80
2022-11-20T03:24:39.626Z,6.00
2022-11-20T03:29:32.190Z,5.80
2022-11-20T03:34:24.769Z,6.73
2022-11-20T03:39:17.329Z,5.80
2022-11-20T03:44:12.100Z,5.57
2022-11-20T03:49:04.733Z,5.30
2022-11-20T03:53:58.339Z,5.07
2022-11-20T03:58:50.992Z,5.37
2022-11-20T04:03:45.617Z,5.30
2022-11-20T04:08:38.208Z,5.47
2022-11-20T04:13:30.775Z,4.50
2022-11-20T04:18:23.344Z,4.80
2022-11-20T04:23:17.297Z,4.83
2022-11-20T04:28:09.995Z,4.87
2022-11-20T04:33:02.581Z,5.50
2022-11-20T04:37:55.139Z,5.70
2022-11-20T04:42:49.127Z,6.30
2022-11-20T04:47:41.721Z,5.30
2022-11-20T04:52:34.292Z,5.90
2022-11-20T04:57:26.867Z,5.80
2022-11-20T05:02:20.795Z,5.33
2022-11-20T05:07:13.535Z,5.37
2022-11-20T05:12:06.300Z,6.53
2022-11-20T05:16:58.848Z,5.93
2022-11-20T05:21:52.727Z,5.97
2022-11-20T05:26:45.311Z,5.37
2022-11-20T05:31:38.264Z,5.80
2022-11-20T05:36:31.861Z,5.20
2022-11-20T05:41:25.859Z,5.13
2022-11-20T05:46:22.318Z,5.53
2022-11-20T05:51:18.999Z,6.07
2022-11-20T05:56:13.227Z,6.00
2022-11-20T06:01:08.516Z,5.10
2022-11-20T06:06:01.123Z,5.17
2022-11-20T06:10:53.786Z,4.40
2022-11-20T06:15:50.010Z,5.00
2022-11-20T06:20:43.903Z,5.40
2022-11-20T06:25:39.373Z,4.80
2022-11-20T06:30:31.986Z,5.20
2022-11-20T06:35:24.554Z,3.87
2022-11-20T06:40:18.699Z,4.73
2022-11-20T06:45:11.587Z,3.80
2022-11-20T06:50:04.655Z,4.00
2022-11-20T06:54:57.248Z,5.20
2022-11-20T06:59:51.138Z,4.77
2022-11-20T07:04:43.693Z,4.80
2022-11-20T07:09:36.435Z,4.33
2022-11-20T07:14:28.994Z,4.10
2022-11-20T07:19:23.185Z,4.70
2022-11-20T07:24:15.933Z,4.43
2022-11-20T07:29:10.334Z,3.63
2022-11-20T07:34:03.016Z,4.23
2022-11-20T07:38:56.947Z,4.20
2022-11-20T07:43:49.577Z,4.03
2022-11-20T07:48:42.210Z,4.57
2022-11-20T07:53:34.803Z,5.47
2022-11-20T07:58:30.585Z,5.93
2022-11-20T08:03:25.083Z,5.87
2022-11-20T08:08:17.863Z,5.90
2022-11-20T08:13:28.308Z,6.20
2022-11-20T08:18:37.453Z,6.17
2022-11-20T08:23:30.087Z,6.50
2022-11-20T08:28:22.816Z,5.73
2022-11-20T08:33:15.459Z,7.13
2022-11-20T08:38:10.504Z,6.30
2022-11-20T08:43:03.054Z,7.07
2022-11-20T08:47:55.663Z,6.43
2022-11-20T08:52:48.485Z,7.30
2022-11-20T08:57:45.537Z,6.20
2022-11-20T09:02:40.878Z,6.40
2022-11-20T09:07:33.738Z,6.03
2022-11-20T09:12:26.565Z,6.10
2022-11-20T09:17:21.421Z,6.00
2022-11-20T09:22:14.098Z,5.33
2022-11-20T09:27:07.071Z,5.23
2022-11-20T09:31:59.675Z,5.10
2022-11-20T09:36:53.688Z,5.27
2022-11-20T09:41:56.668Z,5.50
2022-11-20T09:46:53.629Z,4.60
2022-11-20T09:51:52.663Z,5.10
2022-11-20T09:56:48.072Z,4.77
2022-11-20T10:01:41.847Z,5.37
2022-11-20T10:06:35.307Z,5.80
2022-11-20T10:11:32.743Z,5.07
2022-11-20T10:16:40.742Z,5.17
2022-11-20T10:21:40.831Z,5.10
2022-11-20T10:26:39.407Z,5.93
2022-11-20T10:31:35.053Z,5.40
2022-11-20T10:36:30.149Z,5.30
2022-11-20T10:41:28.174Z,5.47
2022-11-20T10:46:24.174Z,4.70
2022-11-20T10:51:29.408Z,4.37
2022-11-20T10:56:23.627Z,5.07
2022-11-20T11:01:17.689Z,4.17
2022-11-20T11:06:13.474Z,3.90
2022-11-20T11:11:14.775Z,3.80
2022-11-20T11:16:07.374Z,3.70
2022-11-20T11:21:01.218Z,3.27
2022-11-20T11:25:58.499Z,3.43
2022-11-20T11:30:52.909Z,2.90
2022-11-20T11:35:49.953Z,2.90
2022-11-20T11:40:43.838Z,2.60
2022-11-20T11:45:36.430Z,3.13
2022-11-20T11:50:32.045Z,3.13
2022-11-20T11:55:29.428Z,2.77
2022-11-20T12:00:23.178Z,3.00
2022-11-20T12:05:19.654Z,2.83
2022-11-20T12:10:17.374Z,2.67
2022-11-20T12:15:11.920Z,2.77
2022-11-20T12:20:04.697Z,1.90
2022-11-20T12:25:01.155Z,1.87
2022-11-20T12:29:57.937Z,2.70
2022-11-20T12:34:55.206Z,2.10
2022-11-20T12:39:50.878Z,2.07
2022-11-20T12:45:09.961Z,2.93
2022-11-20T12:50:09.067Z,5.37
2022-11-20T12:55:10.063Z,3.87
2022-11-20T13:00:10.899Z,3.20
2022-11-20T13:05:11.849Z,3.50
2022-11-20T13:10:08.741Z,4.37
2022-11-20T13:15:07.077Z,3.60
2022-11-20T13:20:00.450Z,2.40
2022-11-20T13:24:54.433Z,2.20
2022-11-20T13:29:47.862Z,1.80
2022-11-20T13:34:40.768Z,3.50
2022-11-20T13:39:34.175Z,2.30
2022-11-20T13:44:30.842Z,1.90
2022-11-20T13:49:26.961Z,1.80
2022-11-20T13:54:25.062Z,1.53
2022-11-20T13:59:26.889Z,1.77
2022-11-20T14:04:23.785Z,2.27
2022-11-20T14:09:26.865Z,1.97
2022-11-20T14:14:21.984Z,1.80
2022-11-20T14:19:31.341Z,1.60
2022-11-20T14:24:25.030Z,4.10
2022-11-20T14:29:19.889Z,3.63
2022-11-20T14:34:16.919Z,2.00
2022-11-20T14:39:13.151Z,2.43
2022-11-20T14:44:06.304Z,1.83
2022-11-20T14:48:59.918Z,1.70
2022-11-20T14:53:52.955Z,2.00
2022-11-20T14:58:56.980Z,2.20
2022-11-20T15:03:59.458Z,2.00
2022-11-20T15:08:52.719Z,2.10
2022-11-20T15:13:45.298Z,3.20
2022-11-20T15:18:42.567Z,2.90
2022-11-20T15:23:35.174Z,2.70
2022-11-20T15:28:31.270Z,2.70
2022-11-20T15:33:23.934Z,2.70
2022-11-20T15:38:17.876Z,3.60
2022-11-20T15:43:13.645Z,3.67
2022-11-20T15:48:07.341Z,4.60
2022-11-20T15:52:59.988Z,4.47
2022-11-20T15:57:53.928Z,7.00
2022-11-20T16:02:46.783Z,4.53
2022-11-20T16:07:39.547Z,5.10
2022-11-20T16:12:49.803Z,5.90
2022-11-20T16:17:46.587Z,4.00
2022-11-20T16:22:39.144Z,6.07
2022-11-20T16:27:31.704Z,4.00
2022-11-20T16:32:24.351Z,6.80
2022-11-20T16:37:18.285Z,3.17
2022-11-20T16:42:10.968Z,4.93
2022-11-20T16:47:03.603Z,5.00
2022-11-20T16:51:56.209Z,3.10
2022-11-20T16:56:51.889Z,6.70
2022-11-20T17:01:44.720Z,5.10
2022-11-20T17:06:38.162Z,3.77
2022-11-20T17:11:30.749Z,3.70
2022-11-20T17:16:25.222Z,3.50
2022-11-20T17:21:18.648Z,3.60
2022-11-20T17:26:12.156Z,3.50
2022-11-20T17:31:05.863Z,2.93
2022-11-20T17:36:00.006Z,2.43
2022-11-20T17:40:52.586Z,2.50
2022-11-20T17:45:45.290Z,2.87
2022-11-20T17:50:37.870Z,3.30
2022-11-20T17:55:55.607Z,2.43
2022-11-20T18:00:48.526Z,3.07
2022-11-20T18:05:41.193Z,2.77
2022-11-20T18:10:35.307Z,2.83
2022-11-20T18:15:27.918Z,6.20
2022-11-20T18:20:31.116Z,3.43
2022-11-20T18:25:25.831Z,3.60
2022-11-20T18:30:19.978Z,3.40
2022-11-20T18:35:12.579Z,4.50
2022-11-20T18:40:05.562Z,6.30
2022-11-20T18:45:00.165Z,5.20
2022-11-20T18:49:54.974Z,4.33
2022-11-20T18:54:47.636Z,3.00
2022-11-20T18:59:40.205Z,4.13
2022-11-20T19:04:34.761Z,3.40
2022-11-20T19:09:29.329Z,3.10
2022-11-20T19:14:21.904Z,2.90
2022-11-20T19:19:15.726Z,2.57
2022-11-20T19:24:08.426Z,2.30
2022-11-20T19:29:02.479Z,2.40
2022-11-20T19:33:56.021Z,2.30
2022-11-20T19:38:50.246Z,2.13
2022-11-20T19:43:42.887Z,2.47
2022-11-20T19:48:37.623Z,3.57
2022-11-20T19:53:30.894Z,2.23
2022-11-20T19:58:23.635Z,2.87
2022-11-20T20:03:16.355Z,2.20
2022-11-20T20:08:12.154Z,2.33
2022-11-20T20:13:06.734Z,2.90
2022-11-20T20:17:59.310Z,2.80
2022-11-20T20:22:51.927Z,2.70
2022-11-20T20:27:45.896Z,3.20
2022-11-20T20:32:38.970Z,2.77
2022-11-20T20:37:31.618Z,2.57
2022-11-20T20:42:24.210Z,3.33
2022-11-20T20:47:18.128Z,2.27
2022-11-20T20:52:10.758Z,2.60
2022-11-20T20:57:03.384Z,2.17
2022-11-20T21:01:55.998Z,2.60
2022-11-20T21:06:49.963Z,2.60
2022-11-20T21:11:42.607Z,2.40
2022-11-20T21:16:41.063Z,1.70
2022-11-20T21:21:51.417Z,2.43
2022-11-20T21:26:45.482Z,2.60
2022-11-20T21:31:38.423Z,2.40
2022-11-20T21:36:31.761Z,2.80
2022-11-20T21:41:24.741Z,2.20
2022-11-20T21:46:18.827Z,2.10
2022-11-20T21:51:12.251Z,2.27
2022-11-20T21:56:06.946Z,2.17
2022-11-20T22:00:59.467Z,2.20
2022-11-20T22:05:57.432Z,2.00
2022-11-20T22:10:56.832Z,2.20
2022-11-20T22:16:03.834Z,2.20
2022-11-20T22:20:57.777Z,2.70
2022-11-20T22:25:50.360Z,2.00
2022-11-20T22:30:42.928Z,2.50
2022-11-20T22:35:35.490Z,3.13
2022-11-20T22:40:29.420Z,2.80
2022-11-20T22:45:22.042Z,2.53
2022-11-20T22:50:14.885Z,2.90
2022-11-20T22:55:11.122Z,2.73
2022-11-20T23:00:10.090Z,2.90
2022-11-20T23:05:02.647Z,3.30
2022-11-20T23:09:55.196Z,3.20
2022-11-20T23:14:48.104Z,2.83
2022-11-20T23:19:42.039Z,3.20
2022-11-20T23:24:34.645Z,2.70
2022-11-20T23:29:27.296Z,2.63
2022-11-20T23:34:20.004Z,3.47
2022-11-20T23:39:15.066Z,3.13
2022-11-20T23:44:07.903Z,2.87
2022-11-20T23:49:00.480Z,3.23
2022-11-20T23:53:53.074Z,2.80
2022-11-20T23:58:47.023Z,2.70
